Time;durP1;ratioP1;P1;durP2;ratioP2;P2;SDS_P1;SDS_P2;PMS_P1;PMS_P2;Temp;Humidity;BMP_temperature;BMP_pressure;BME280_temperature;BME280_humidity;BME280_pressure;Samples;Min_cycle;Max_cycle;Signal;HPM_P1;HPM_P2
2021/10/29 00:00:25;;;;;;;14.65;2.67;;;10.30;99.90;;;;;;5068073;28;20027;-71
2021/10/29 00:02:52;;;;;;;3.05;1.92;;;10.30;99.90;;;;;;5061062;28;20032;-72
2021/10/29 00:05:18;;;;;;;1.40;0.68;;;10.30;99.90;;;;;;5065300;28;20028;-71
2021/10/29 00:07:44;;;;;;;5.63;1.38;;;10.30;99.90;;;;;;5065190;28;20103;-72
2021/10/29 00:10:10;;;;;;;1.45;1.08;;;10.30;99.90;;;;;;5058586;28;20028;-72
2021/10/29 00:12:36;;;;;;;3.80;1.95;;;10.30;99.90;;;;;;5059801;28;20021;-72
2021/10/29 00:15:02;;;;;;;14.45;3.35;;;10.30;99.90;;;;;;5059749;28;20423;-72
2021/10/29 00:17:28;;;;;;;4.78;3.20;;;10.30;99.90;;;;;;5065361;28;20035;-72
2021/10/29 00:19:53;;;;;;;1.38;1.27;;;10.30;99.90;;;;;;5068153;28;20029;-72
2021/10/29 00:22:19;;;;;;;2.47;1.50;;;10.30;99.90;;;;;;5066007;28;20043;-72
2021/10/29 00:24:44;;;;;;;2.53;1.75;;;10.30;99.90;;;;;;5062981;28;20039;-73
2021/10/29 00:27:10;;;;;;;2.03;1.55;;;10.30;99.90;;;;;;5050316;28;20056;-72
2021/10/29 00:29:35;;;;;;;3.15;1.70;;;10.20;99.90;;;;;;5062375;28;20025;-72
2021/10/29 00:32:01;;;;;;;2.30;1.83;;;10.20;99.90;;;;;;5064876;28;20021;-73
2021/10/29 00:34:26;;;;;;;1.75;1.60;;;10.20;99.90;;;;;;5056545;28;20029;-72
2021/10/29 00:36:52;;;;;;;1.30;1.23;;;10.30;99.90;;;;;;5047951;28;20582;-72
2021/10/29 00:39:19;;;;;;;2.60;1.80;;;10.30;99.90;;;;;;5061084;28;20052;-72
2021/10/29 00:41:45;;;;;;;1.23;1.15;;;10.30;99.90;;;;;;5067684;28;20111;-72
2021/10/29 00:44:10;;;;;;;2.20;1.95;;;10.30;99.90;;;;;;5058125;28;20131;-73
2021/10/29 00:46:36;;;;;;;1.45;1.35;;;10.30;99.90;;;;;;5062994;28;20024;-73
2021/10/29 00:49:02;;;;;;;2.28;1.27;;;10.20;99.90;;;;;;5061058;28;20098;-72
2021/10/29 00:51:28;;;;;;;0.85;0.85;;;10.20;99.90;;;;;;5064680;28;20021;-73
2021/10/29 00:53:54;;;;;;;2.38;1.23;;;10.20;99.90;;;;;;5062620;28;20124;-72
2021/10/29 00:56:20;;;;;;;1.35;1.27;;;10.20;99.90;;;;;;5064276;28;20028;-72
2021/10/29 00:58:46;;;;;;;2.47;1.83;;;10.20;99.90;;;;;;5064056;28;20025;-72
2021/10/29 01:01:12;;;;;;;3.38;2.38;;;10.10;99.90;;;;;;5066672;28;20032;-72
2021/10/29 01:03:39;;;;;;;4.03;1.65;;;10.10;99.90;;;;;;5067074;28;20020;-72
2021/10/29 01:06:05;;;;;;;2.30;2.10;;;10.10;99.90;;;;;;5064216;28;20113;-72
2021/10/29 01:08:31;;;;;;;1.67;1.58;;;10.10;99.90;;;;;;5065985;28;20105;-72
2021/10/29 01:10:57;;;;;;;1.55;1.45;;;10.00;99.90;;;;;;5059478;28;20024;-73
2021/10/29 01:13:22;;;;;;;1.90;1.80;;;10.00;99.90;;;;;;5056132;28;20395;-72
2021/10/29 01:15:48;;;;;;;4.28;2.13;;;10.00;99.90;;;;;;5063441;28;20070;-73
2021/10/29 01:18:14;;;;;;;1.98;1.88;;;9.90;99.90;;;;;;5066144;28;20093;-73
2021/10/29 01:20:39;;;;;;;2.47;1.33;;;9.90;99.90;;;;;;5067977;28;20028;-72
2021/10/29 01:23:05;;;;;;;3.92;1.38;;;9.90;99.90;;;;;;5060727;28;20035;-72
2021/10/29 01:25:30;;;;;;;0.73;0.52;;;9.90;99.90;;;;;;5065188;28;20036;-72
2021/10/29 01:27:56;;;;;;;1.02;0.85;;;9.90;99.90;;;;;;5059380;28;20025;-72
2021/10/29 01:30:21;;;;;;;0.43;0.43;;;9.90;99.90;;;;;;5058793;28;20021;-73
2021/10/29 01:32:47;;;;;;;0.55;0.55;;;9.80;99.90;;;;;;5063747;28;20023;-73
2021/10/29 01:35:14;;;;;;;3.25;2.97;;;9.80;99.90;;;;;;5065922;28;20028;-72
2021/10/29 01:37:42;;;;;;;1.60;1.50;;;9.70;99.90;;;;;;5064076;28;20067;-73
2021/10/29 01:40:10;;;;;;;1.38;1.27;;;9.70;99.90;;;;;;5074430;28;20082;-72
2021/10/29 01:42:37;;;;;;;0.90;0.90;;;9.60;99.90;;;;;;5065003;28;20044;-72
2021/10/29 01:45:07;;;;;;;1.98;1.83;;;9.60;99.90;;;;;;5069503;28;20032;-72
2021/10/29 01:47:33;;;;;;;5.88;2.22;;;9.60;99.90;;;;;;5059066;28;20425;-72
2021/10/29 01:49:59;;;;;;;3.22;1.83;;;9.60;99.90;;;;;;5060897;28;20037;-72
2021/10/29 01:52:34;;;;;;;1.35;1.25;;;9.50;99.90;;;;;;5059389;28;20027;-72
2021/10/29 01:55:00;;;;;;;0.65;0.65;;;9.50;99.90;;;;;;5067305;28;20440;-72
2021/10/29 01:57:26;;;;;;;6.55;2.47;;;9.50;99.90;;;;;;5064183;28;20048;-72
2021/10/29 01:59:51;;;;;;;2.97;2.72;;;9.50;99.90;;;;;;5079075;28;20390;-73
2021/10/29 02:02:17;;;;;;;2.53;1.85;;;9.50;99.90;;;;;;5058379;28;20087;-72
2021/10/29 02:04:42;;;;;;;1.80;1.27;;;9.50;99.90;;;;;;5057968;28;20032;-72
2021/10/29 02:07:08;;;;;;;1.40;1.35;;;9.40;99.90;;;;;;5061043;28;20140;-72
2021/10/29 02:09:33;;;;;;;3.28;2.25;;;9.40;99.90;;;;;;5067476;28;20021;-72
2021/10/29 02:11:59;;;;;;;1.63;1.52;;;9.40;99.90;;;;;;5070560;28;20020;-72
2021/10/29 02:14:24;;;;;;;4.30;1.58;;;9.40;99.90;;;;;;5060743;28;20035;-72
2021/10/29 02:16:50;;;;;;;1.40;0.80;;;9.40;99.90;;;;;;5072241;28;20222;-72
2021/10/29 02:19:15;;;;;;;2.15;1.40;;;9.40;99.90;;;;;;5071504;28;20032;-72
2021/10/29 02:21:41;;;;;;;1.25;1.15;;;9.30;99.90;;;;;;5073028;28;20391;-72
2021/10/29 02:24:07;;;;;;;4.88;2.50;;;9.30;99.90;;;;;;5069319;28;20029;-72
2021/10/29 02:26:34;;;;;;;1.77;1.65;;;9.30;99.90;;;;;;5067064;28;21854;-72
2021/10/29 02:29:00;;;;;;;2.10;1.48;;;9.30;99.90;;;;;;5061546;28;20060;-72
2021/10/29 02:31:26;;;;;;;1.35;1.30;;;9.30;99.90;;;;;;5065327;28;20056;-72
2021/10/29 02:33:55;;;;;;;2.25;2.05;;;9.20;99.90;;;;;;5069357;28;20036;-72
2021/10/29 02:36:21;;;;;;;0.98;0.98;;;9.20;99.90;;;;;;5065452;28;20035;-72
2021/10/29 02:38:47;;;;;;;3.70;2.42;;;9.20;99.90;;;;;;5045895;28;20031;-72
2021/10/29 02:41:13;;;;;;;2.88;1.70;;;9.20;99.90;;;;;;5057997;28;20615;-72
2021/10/29 02:43:42;;;;;;;3.35;1.65;;;9.20;99.90;;;;;;5067636;28;20458;-73
2021/10/29 02:46:08;;;;;;;0.82;0.82;;;9.10;99.90;;;;;;5064668;28;20021;-72
2021/10/29 02:48:33;;;;;;;1.80;1.70;;;9.10;99.90;;;;;;5063780;28;20066;-73
2021/10/29 02:50:59;;;;;;;1.83;1.73;;;9.10;99.90;;;;;;5063108;28;20025;-72
2021/10/29 02:53:25;;;;;;;1.77;1.67;;;9.00;99.90;;;;;;5052985;28;20017;-72
2021/10/29 02:55:50;;;;;;;4.03;2.10;;;9.00;99.90;;;;;;5063580;28;20082;-72
2021/10/29 02:58:16;;;;;;;0.90;0.90;;;9.00;99.90;;;;;;5069454;28;20039;-72
2021/10/29 03:00:41;;;;;;;5.32;1.50;;;8.90;99.90;;;;;;5066479;28;20017;-72
2021/10/29 03:03:07;;;;;;;4.13;2.25;;;8.90;99.90;;;;;;5065736;28;20052;-72
2021/10/29 03:05:36;;;;;;;2.40;2.20;;;8.90;99.90;;;;;;5066643;28;20029;-72
2021/10/29 03:08:03;;;;;;;2.00;1.50;;;8.90;99.90;;;;;;5063800;28;20524;-72
2021/10/29 03:10:28;;;;;;;1.00;0.60;;;8.90;99.90;;;;;;5052100;28;20388;-72
2021/10/29 03:12:53;;;;;;;1.92;1.83;;;8.90;99.90;;;;;;5065566;28;20024;-72
2021/10/29 03:15:19;;;;;;;2.22;1.88;;;8.90;99.90;;;;;;5061439;28;20115;-72
2021/10/29 03:17:45;;;;;;;3.67;3.33;;;8.90;99.90;;;;;;5051862;28;20029;-73
2021/10/29 03:20:11;;;;;;;2.08;1.85;;;8.90;99.90;;;;;;5059349;28;20071;-72
2021/10/29 03:22:37;;;;;;;2.08;1.05;;;8.80;99.90;;;;;;5067852;28;20616;-73
2021/10/29 03:25:04;;;;;;;1.70;1.60;;;8.80;99.90;;;;;;5057974;28;20029;-73
2021/10/29 03:27:29;;;;;;;2.80;2.05;;;8.80;99.90;;;;;;5067049;28;20044;-72
2021/10/29 03:29:55;;;;;;;0.85;0.85;;;8.70;99.90;;;;;;5061209;28;20056;-73
2021/10/29 03:32:22;;;;;;;3.17;2.85;;;8.70;99.90;;;;;;5053510;28;20032;-72
2021/10/29 03:34:48;;;;;;;15.98;3.42;;;8.60;99.90;;;;;;5061462;28;20028;-71
2021/10/29 03:40:36;;;;;;;3.75;2.58;;;8.70;99.90;;;;;;5066342;28;20036;-72
2021/10/29 03:42:43;;;;;;;2.20;2.10;;;8.70;99.90;;;;;;5057689;28;20045;-72
2021/10/29 03:45:12;;;;;;;2.00;1.65;;;8.60;99.90;;;;;;5065866;28;20467;-72
2021/10/29 03:47:42;;;;;;;1.27;1.20;;;8.60;99.90;;;;;;5066096;28;20024;-72
2021/10/29 03:50:29;;;;;;;2.42;1.88;;;8.60;99.90;;;;;;5066867;28;20043;-72
2021/10/29 03:55:42;;;;;;;1.45;1.38;;;8.60;99.90;;;;;;5062934;28;20035;-73
2021/10/29 03:58:08;;;;;;;4.28;3.35;;;8.60;99.90;;;;;;5064147;28;20440;-72
2021/10/29 04:00:35;;;;;;;0.93;0.93;;;8.60;99.90;;;;;;5066864;28;20028;-73
2021/10/29 04:03:03;;;;;;;2.53;1.77;;;8.50;99.90;;;;;;5057312;28;20031;-73
2021/10/29 04:05:30;;;;;;;0.70;0.70;;;8.50;99.90;;;;;;5063353;28;20033;-73
2021/10/29 04:07:56;;;;;;;1.05;1.05;;;8.50;99.90;;;;;;5067517;28;20023;-74
2021/10/29 04:10:28;;;;;;;1.30;1.17;;;8.50;99.90;;;;;;5063779;28;20601;-73
2021/10/29 04:12:56;;;;;;;1.30;1.23;;;8.50;99.90;;;;;;5061782;28;20376;-73
2021/10/29 04:15:22;;;;;;;3.42;2.53;;;8.40;99.90;;;;;;5063175;28;20135;-73
2021/10/29 04:17:48;;;;;;;1.38;1.27;;;8.40;99.90;;;;;;5066245;28;20051;-73
2021/10/29 04:20:14;;;;;;;1.58;1.48;;;8.40;99.90;;;;;;5062599;28;20471;-73
2021/10/29 04:22:40;;;;;;;5.70;0.93;;;8.40;99.90;;;;;;5052621;28;20499;-73
2021/10/29 04:25:06;;;;;;;0.75;0.75;;;8.30;99.90;;;;;;5058924;28;20113;-73
2021/10/29 04:27:34;;;;;;;5.00;1.65;;;8.30;99.90;;;;;;5068376;28;20051;-72
2021/10/29 04:30:00;;;;;;;1.17;1.02;;;8.20;99.90;;;;;;5061121;28;20040;-73
2021/10/29 04:32:26;;;;;;;1.35;1.17;;;8.20;99.90;;;;;;5065794;28;20036;-71
2021/10/29 04:34:52;;;;;;;3.10;2.72;;;8.20;99.90;;;;;;5063197;28;20078;-71
2021/10/29 04:37:18;;;;;;;5.72;1.65;;;8.20;99.90;;;;;;5068206;28;20574;-70
2021/10/29 04:39:45;;;;;;;2.38;1.58;;;8.10;99.90;;;;;;5062141;28;20036;-71
2021/10/29 04:42:10;;;;;;;2.95;2.13;;;8.10;99.90;;;;;;5062573;28;20155;-74
2021/10/29 04:44:36;;;;;;;1.38;1.00;;;8.10;99.90;;;;;;5064659;28;20248;-71
2021/10/29 04:47:01;;;;;;;1.25;1.15;;;8.00;99.90;;;;;;5052732;28;20017;-71
2021/10/29 04:49:27;;;;;;;0.73;0.65;;;8.10;99.90;;;;;;5063946;28;20048;-71
2021/10/29 04:51:52;;;;;;;3.80;2.20;;;8.10;99.90;;;;;;5051816;28;20029;-71
2021/10/29 04:54:18;;;;;;;2.00;1.75;;;8.10;99.90;;;;;;5056797;28;20558;-70
2021/10/29 04:56:43;;;;;;;3.40;2.08;;;8.10;99.90;;;;;;5054781;28;20083;-71
2021/10/29 04:59:13;;;;;;;0.75;0.73;;;8.10;99.90;;;;;;5058132;28;20028;-70
2021/10/29 05:01:38;;;;;;;0.90;0.90;;;8.10;99.90;;;;;;5058092;28;20040;-72
2021/10/29 05:04:04;;;;;;;13.38;1.58;;;8.10;99.90;;;;;;5059410;28;20074;-74
2021/10/29 05:06:29;;;;;;;0.70;0.70;;;8.10;99.90;;;;;;5065396;28;20103;-74
2021/10/29 05:08:55;;;;;;;2.05;1.33;;;8.10;99.90;;;;;;5063411;28;20033;-73
2021/10/29 05:11:20;;;;;;;3.00;1.33;;;8.00;99.90;;;;;;5062814;28;20119;-71
2021/10/29 05:14:21;;;;;;;1.55;1.05;;;8.00;99.90;;;;;;5065400;28;20029;-70
2021/10/29 05:16:49;;;;;;;1.50;1.40;;;8.10;99.90;;;;;;4981215;28;20408;-71
2021/10/29 05:19:15;;;;;;;5.25;1.95;;;8.00;99.90;;;;;;5043338;28;20033;-71
2021/10/29 05:21:40;;;;;;;0.38;0.38;;;8.00;99.90;;;;;;5063862;28;20017;-70
2021/10/29 05:24:06;;;;;;;6.47;1.02;;;7.90;99.90;;;;;;5067077;28;20087;-70
2021/10/29 05:26:31;;;;;;;0.65;0.65;;;7.90;99.90;;;;;;5057044;28;20041;-70
2021/10/29 05:28:57;;;;;;;3.22;2.78;;;7.90;99.90;;;;;;5056089;28;20021;-70
2021/10/29 05:31:23;;;;;;;4.03;2.55;;;7.90;99.90;;;;;;5064171;28;20041;-70
2021/10/29 05:33:48;;;;;;;3.15;1.20;;;7.90;99.90;;;;;;5064732;28;20041;-70
2021/10/29 05:36:14;;;;;;;0.60;0.60;;;7.90;99.90;;;;;;5061016;28;20563;-70
2021/10/29 05:38:39;;;;;;;3.30;1.88;;;7.90;99.90;;;;;;5064571;28;20108;-71
2021/10/29 05:41:05;;;;;;;2.35;2.15;;;7.90;99.90;;;;;;5064922;28;20524;-70
2021/10/29 05:43:30;;;;;;;1.50;1.35;;;7.80;99.90;;;;;;5069586;28;20025;-70
2021/10/29 05:45:56;;;;;;;2.80;1.77;;;7.90;99.90;;;;;;5063279;28;20083;-71
2021/10/29 05:48:21;;;;;;;1.00;1.00;;;7.90;99.90;;;;;;5064291;28;20060;-70
2021/10/29 05:50:51;;;;;;;2.70;1.27;;;7.80;99.90;;;;;;5066284;28;20254;-69
2021/10/29 05:53:35;;;;;;;1.25;1.15;;;7.80;99.90;;;;;;5062494;28;20425;-69
2021/10/29 05:56:00;;;;;;;1.10;1.10;;;7.80;99.90;;;;;;5069184;28;20035;-70
2021/10/29 05:58:27;;;;;;;1.92;1.08;;;7.80;99.90;;;;;;5055512;28;20021;-70
2021/10/29 06:00:52;;;;;;;3.95;1.33;;;7.80;99.90;;;;;;5066269;28;20170;-70
2021/10/29 06:03:17;;;;;;;1.00;0.98;;;7.80;99.90;;;;;;5057496;28;20108;-71
2021/10/29 06:05:43;;;;;;;0.73;0.73;;;7.80;99.90;;;;;;5062955;28;20029;-70
2021/10/29 06:08:09;;;;;;;1.30;0.82;;;7.90;99.90;;;;;;5062328;28;20017;-70
2021/10/29 06:10:34;;;;;;;1.73;1.48;;;7.90;99.90;;;;;;5067180;28;20032;-69
2021/10/29 06:13:00;;;;;;;1.33;0.98;;;7.90;99.90;;;;;;5067679;28;20024;-70
2021/10/29 06:15:25;;;;;;;2.13;1.42;;;7.90;99.90;;;;;;5065565;28;20383;-70
2021/10/29 06:17:51;;;;;;;1.45;1.45;;;7.90;99.90;;;;;;5063424;28;20414;-71
2021/10/29 06:20:17;;;;;;;2.53;0.80;;;8.00;99.90;;;;;;5058265;28;20087;-70
2021/10/29 06:25:15;;;;;;;0.32;0.32;;;8.00;99.90;;;;;;5068475;28;20564;-69
2021/10/29 06:30:25;;;;;;;0.82;0.82;;;7.90;99.90;;;;;;5058400;28;20035;-70
2021/10/29 06:32:50;;;;;;;1.88;1.10;;;7.90;99.90;;;;;;5065505;28;20482;-71
2021/10/29 06:35:16;;;;;;;3.83;1.60;;;7.90;99.90;;;;;;5056477;28;20110;-71
2021/10/29 06:37:45;;;;;;;1.42;0.98;;;7.90;99.90;;;;;;5057447;28;20025;-71
2021/10/29 06:40:15;;;;;;;1.88;1.42;;;7.90;99.90;;;;;;5051867;28;20083;-72
2021/10/29 06:42:46;;;;;;;1.05;0.95;;;7.90;99.90;;;;;;5058753;28;20104;-71
2021/10/29 06:48:19;;;;;;;3.30;1.42;;;7.90;99.90;;;;;;5062134;28;20109;-71
2021/10/29 07:01:52;;;;;;;0.60;0.60;;;8.10;99.90;;;;;;5057117;28;20028;-71
2021/10/29 07:39:56;;;;;;;1.10;1.08;;;8.20;99.90;;;;;;5059251;28;20197;-70
2021/10/29 07:39:59;;;;;;;1.75;1.38;;;8.40;99.90;;;;;;5064494;28;20722;-73
2021/10/29 07:42:36;;;;;;;1.15;1.05;;;8.40;99.90;;;;;;5064815;28;20024;-71
2021/10/29 07:45:02;;;;;;;2.92;1.23;;;8.50;99.90;;;;;;5064135;28;20398;-72
2021/10/29 07:47:28;;;;;;;0.47;0.47;;;8.50;99.90;;;;;;5063919;28;20368;-73
2021/10/29 07:49:54;;;;;;;0.98;0.80;;;8.60;99.90;;;;;;5064796;28;20024;-72
2021/10/29 07:52:19;;;;;;;2.45;1.98;;;8.60;99.90;;;;;;5065649;28;20024;-71
2021/10/29 07:54:45;;;;;;;2.78;1.45;;;8.60;99.90;;;;;;5055062;28;20032;-72
2021/10/29 07:57:13;;;;;;;0.45;0.45;;;8.60;99.90;;;;;;5058973;28;20025;-70
2021/10/29 07:59:40;;;;;;;2.08;1.98;;;8.70;99.90;;;;;;5064281;28;20058;-70
2021/10/29 08:02:06;;;;;;;2.33;2.15;;;8.70;99.90;;;;;;5064718;28;20052;-72
2021/10/29 08:04:31;;;;;;;3.72;2.28;;;8.80;99.90;;;;;;5063175;28;20044;-70
2021/10/29 08:06:57;;;;;;;0.38;0.38;;;8.80;99.90;;;;;;5063668;28;20017;-71
2021/10/29 08:09:26;;;;;;;3.10;2.67;;;8.90;99.90;;;;;;5058415;28;20028;-71
2021/10/29 08:11:53;;;;;;;1.35;1.17;;;9.00;99.90;;;;;;5062131;28;20510;-71
2021/10/29 08:14:19;;;;;;;3.13;1.70;;;9.00;99.90;;;;;;5056584;28;20111;-71
2021/10/29 08:16:45;;;;;;;3.05;2.28;;;9.10;99.90;;;;;;5057280;28;20036;-71
2021/10/29 08:19:11;;;;;;;2.22;1.50;;;9.10;99.90;;;;;;5064265;28;20033;-73
2021/10/29 08:21:37;;;;;;;1.30;1.23;;;9.20;99.90;;;;;;5062670;28;20032;-72
2021/10/29 08:24:03;;;;;;;1.75;1.65;;;9.20;99.90;;;;;;5057320;28;20086;-71
2021/10/29 08:26:28;;;;;;;1.77;1.67;;;9.30;99.90;;;;;;5054289;28;20132;-71
2021/10/29 08:28:54;;;;;;;1.63;1.52;;;9.40;99.90;;;;;;5063247;28;20479;-71
2021/10/29 08:31:20;;;;;;;2.10;1.55;;;9.40;99.90;;;;;;5058930;28;20054;-71
2021/10/29 08:33:45;;;;;;;1.25;1.08;;;9.40;99.90;;;;;;5052321;28;20065;-72
2021/10/29 08:36:12;;;;;;;1.83;1.42;;;9.50;99.90;;;;;;5066824;28;20028;-72
2021/10/29 08:38:38;;;;;;;2.08;1.98;;;9.60;99.90;;;;;;5057509;28;20075;-71
2021/10/29 08:41:04;;;;;;;2.92;1.70;;;9.70;99.90;;;;;;5063244;28;20088;-73
2021/10/29 08:43:29;;;;;;;0.85;0.75;;;9.80;99.90;;;;;;5057518;28;20535;-72
2021/10/29 08:45:55;;;;;;;7.57;2.60;;;9.80;99.90;;;;;;5051977;28;20028;-72
2021/10/29 08:48:27;;;;;;;2.55;1.42;;;9.90;99.90;;;;;;5042749;28;20032;-72
2021/10/29 08:50:53;;;;;;;3.35;1.80;;;9.90;99.90;;;;;;5047007;28;20048;-70
2021/10/29 08:53:19;;;;;;;3.25;2.30;;;10.00;99.90;;;;;;5050210;28;20028;-71
2021/10/29 08:55:45;;;;;;;1.92;1.83;;;10.10;99.90;;;;;;5041136;28;20025;-72
2021/10/29 08:58:11;;;;;;;4.93;2.63;;;10.20;99.90;;;;;;5044025;28;20113;-72
2021/10/29 09:00:42;;;;;;;4.13;1.52;;;10.30;99.90;;;;;;5042584;28;20495;-72
2021/10/29 09:03:58;;;;;;;1.23;1.08;;;10.40;99.90;;;;;;5053858;28;20025;-71
2021/10/29 09:06:39;;;;;;;2.83;1.80;;;10.50;99.90;;;;;;5063725;28;20074;-70
2021/10/29 09:15:52;;;;;;;1.95;1.40;;;10.60;99.90;;;;;;5053790;28;20617;-71
2021/10/29 09:31:27;;;;;;;1.77;0.85;;;11.20;99.90;;;;;;5059052;28;20035;-72
2021/10/29 09:34:10;;;;;;;1.05;0.98;;;11.30;98.40;;;;;;5055083;28;20036;-71
2021/10/29 09:36:37;;;;;;;3.38;1.40;;;11.40;98.80;;;;;;5062038;28;20024;-71
2021/10/29 09:39:06;;;;;;;2.47;1.85;;;11.50;98.50;;;;;;5062213;28;20501;-71
2021/10/29 09:41:34;;;;;;;0.65;0.65;;;11.50;98.30;;;;;;5054168;28;20036;-70
2021/10/29 09:44:04;;;;;;;2.40;1.95;;;11.60;98.10;;;;;;5050562;28;20083;-71
2021/10/29 09:46:44;;;;;;;5.20;1.45;;;11.60;97.30;;;;;;5052626;28;20026;-71
2021/10/29 09:49:17;;;;;;;2.72;1.58;;;11.70;97.30;;;;;;5061584;28;20028;-71
2021/10/29 09:54:52;;;;;;;0.70;0.70;;;11.90;97.90;;;;;;5060590;28;20033;-71
2021/10/29 09:57:19;;;;;;;1.77;1.67;;;12.00;97.10;;;;;;5062706;28;20032;-71
2021/10/29 09:59:45;;;;;;;0.68;0.65;;;12.10;96.20;;;;;;5070160;28;20564;-71
2021/10/29 10:02:18;;;;;;;1.85;1.45;;;12.10;96.00;;;;;;5065715;28;20120;-71
2021/10/29 10:04:49;;;;;;;1.35;1.25;;;12.20;95.50;;;;;;5059839;28;20093;-71
2021/10/29 10:07:18;;;;;;;2.65;1.63;;;12.30;95.70;;;;;;5067528;28;20031;-71
2021/10/29 10:09:44;;;;;;;2.38;1.15;;;12.30;94.80;;;;;;5058204;28;20398;-71
2021/10/29 10:12:10;;;;;;;4.75;1.17;;;12.40;94.60;;;;;;5052535;28;20029;-71
2021/10/29 10:14:39;;;;;;;0.95;0.88;;;12.50;94.40;;;;;;5061017;28;20029;-71
2021/10/29 10:17:04;;;;;;;2.80;2.20;;;12.60;94.30;;;;;;5062057;28;20029;-73
2021/10/29 10:19:30;;;;;;;5.05;3.00;;;12.60;94.50;;;;;;5056555;28;20466;-72
2021/10/29 10:22:00;;;;;;;3.88;1.67;;;12.70;94.30;;;;;;5065296;28;20108;-71
2021/10/29 10:24:31;;;;;;;1.52;1.42;;;12.80;95.20;;;;;;5054896;28;20032;-71
2021/10/29 10:27:31;;;;;;;1.95;1.60;;;12.90;94.50;;;;;;5056637;28;20044;-72
2021/10/29 10:30:24;;;;;;;2.10;1.77;;;13.00;94.70;;;;;;5047105;28;20024;-73
2021/10/29 10:44:19;;;;;;;3.17;2.10;;;14.10;92.30;;;;;;5031832;28;20037;-71
2021/10/29 10:46:49;;;;;;;2.22;0.50;;;14.40;90.50;;;;;;5059568;28;20047;-71
2021/10/29 10:49:19;;;;;;;1.63;1.52;;;14.60;89.10;;;;;;5056425;28;20470;-72
2021/10/29 10:51:51;;;;;;;1.95;1.85;;;14.80;88.50;;;;;;5066291;28;20150;-71
2021/10/29 10:54:42;;;;;;;0.93;0.93;;;14.90;87.00;;;;;;5058279;28;20032;-72
2021/10/29 11:11:13;;;;;;;0.50;0.50;;;16.10;79.60;;;;;;5067159;28;20029;-71
2021/10/29 11:13:42;;;;;;;3.33;1.65;;;16.30;79.70;;;;;;5063186;28;20033;-72
2021/10/29 11:16:27;;;;;;;2.75;2.25;;;16.50;79.70;;;;;;5059289;28;20032;-71
2021/10/29 11:19:06;;;;;;;0.90;0.88;;;16.60;78.30;;;;;;5038642;28;20035;-72
2021/10/29 11:21:36;;;;;;;5.93;2.58;;;16.80;77.50;;;;;;5066751;28;20036;-72
2021/10/29 11:24:07;;;;;;;4.13;2.33;;;17.10;75.50;;;;;;5056526;28;20032;-72
2021/10/29 11:26:44;;;;;;;9.15;1.83;;;17.30;75.20;;;;;;5061482;28;20044;-72
2021/10/29 11:29:11;;;;;;;1.77;1.67;;;17.50;74.80;;;;;;5072860;28;20086;-72
2021/10/29 11:31:44;;;;;;;4.00;1.58;;;17.70;73.40;;;;;;5055995;28;20028;-71
2021/10/29 11:34:13;;;;;;;2.45;1.33;;;17.80;71.30;;;;;;5068763;28;20021;-72
2021/10/29 11:36:41;;;;;;;1.95;1.45;;;18.10;69.10;;;;;;5053364;28;20037;-72
2021/10/29 11:39:09;;;;;;;1.98;1.00;;;18.20;70.00;;;;;;5056370;28;20042;-72
2021/10/29 11:41:37;;;;;;;4.63;2.28;;;18.30;68.30;;;;;;5056770;28;20032;-72
2021/10/29 11:44:15;;;;;;;4.22;1.98;;;18.50;68.40;;;;;;5061188;28;20499;-72
2021/10/29 11:46:43;;;;;;;1.85;1.65;;;18.50;68.10;;;;;;5058782;28;20094;-72
2021/10/29 11:49:24;;;;;;;14.50;3.03;;;18.40;68.30;;;;;;5059391;28;20060;-72
2021/10/29 11:51:50;;;;;;;1.67;1.02;;;18.40;67.60;;;;;;5058751;28;20036;-72
2021/10/29 11:54:25;;;;;;;2.30;1.55;;;18.30;69.30;;;;;;5078386;28;20055;-71
2021/10/29 12:07:31;;;;;;;10.27;2.58;;;18.00;70.00;;;;;;5060112;28;20393;-72
2021/10/29 12:10:17;;;;;;;2.80;1.83;;;17.90;69.90;;;;;;5064306;28;20089;-71
2021/10/29 12:12:45;;;;;;;2.47;1.33;;;18.00;69.70;;;;;;5057101;28;20028;-72
2021/10/29 12:15:14;;;;;;;3.00;1.63;;;18.00;69.60;;;;;;5060324;28;20028;-73
2021/10/29 12:17:53;;;;;;;1.58;1.42;;;18.00;69.00;;;;;;5079703;28;20028;-72
2021/10/29 12:20:29;;;;;;;6.00;1.95;;;18.00;69.10;;;;;;5057903;28;20395;-72
2021/10/29 12:23:14;;;;;;;4.60;1.90;;;18.00;69.60;;;;;;5058517;28;20030;-72
2021/10/29 12:28:20;;;;;;;1.05;0.98;;;18.30;67.00;;;;;;5065863;28;20032;-72
2021/10/29 12:52:55;;;;;;;2.08;1.55;;;19.40;65.10;;;;;;5059781;28;20044;-72
2021/10/29 12:58:52;;;;;;;4.10;3.00;;;19.90;62.00;;;;;;5049007;28;20546;-71
2021/10/29 13:03:42;;;;;;;5.10;2.13;;;21.50;56.40;;;;;;5049290;28;20048;-72
2021/10/29 13:06:07;;;;;;;3.90;2.05;;;21.70;56.00;;;;;;5062478;28;20020;-72
2021/10/29 13:08:37;;;;;;;3.55;2.75;;;21.80;55.70;;;;;;5062576;28;20033;-72
2021/10/29 13:11:03;;;;;;;5.38;1.60;;;21.80;55.50;;;;;;5050281;28;20430;-72
2021/10/29 13:13:35;;;;;;;3.58;1.35;;;21.70;55.10;;;;;;5054127;28;20047;-71
2021/10/29 13:16:05;;;;;;;1.27;1.17;;;21.50;55.50;;;;;;5063368;28;20016;-72
2021/10/29 13:18:48;;;;;;;1.20;1.17;;;21.10;56.90;;;;;;5078795;28;20036;-72
2021/10/29 13:21:56;;;;;;;2.10;1.27;;;20.60;58.20;;;;;;5053869;28;20017;-71
2021/10/29 13:24:23;;;;;;;5.72;2.10;;;20.10;59.80;;;;;;5056340;28;20115;-72
2021/10/29 13:34:20;;;;;;;7.60;2.70;;;19.20;60.80;;;;;;5079087;28;20111;-72
2021/10/29 13:51:14;;;;;;;5.22;2.10;;;17.90;67.10;;;;;;5070897;28;20066;-72
2021/10/29 13:54:36;;;;;;;5.85;2.38;;;17.90;66.60;;;;;;5065867;28;20100;-72
2021/10/29 14:01:37;;;;;;;13.25;2.25;;;17.70;69.00;;;;;;5067083;28;19905;-72
2021/10/29 14:28:41;;;;;;;3.90;2.20;;;16.60;71.80;;;;;;5059829;28;20066;-74
2021/10/29 14:31:12;;;;;;;1.38;0.95;;;16.50;71.90;;;;;;5060128;28;20029;-74
2021/10/29 14:33:45;;;;;;;2.20;2.00;;;16.40;73.70;;;;;;5059710;28;20032;-74
2021/10/29 14:36:12;;;;;;;1.92;1.70;;;16.30;73.90;;;;;;5055044;28;20302;-74
2021/10/29 14:38:50;;;;;;;2.60;1.58;;;16.20;75.80;;;;;;5062234;28;20277;-74
2021/10/29 14:41:23;;;;;;;1.25;1.08;;;15.90;74.70;;;;;;5065684;28;20579;-74
2021/10/29 14:43:58;;;;;;;3.63;1.75;;;15.80;75.20;;;;;;5057939;28;20033;-73
2021/10/29 14:46:38;;;;;;;2.53;1.23;;;15.70;76.30;;;;;;5055409;28;20039;-74
2021/10/29 14:49:28;;;;;;;2.25;1.55;;;15.60;77.30;;;;;;5055335;28;20040;-73
2021/10/29 15:05:39;;;;;;;1.80;1.70;;;14.90;81.60;;;;;;5057955;28;20055;-75
2021/10/29 15:30:24;;;;;;;5.28;2.05;;;13.90;86.30;;;;;;5067474;28;20078;-72
2021/10/29 15:41:11;;;;;;;3.92;1.73;;;13.50;90.10;;;;;;5052030;28;20021;-72
2021/10/29 15:46:22;;;;;;;1.45;1.17;;;13.20;90.80;;;;;;5064016;28;20352;-73
2021/10/29 15:51:22;;;;;;;1.90;1.45;;;13.00;91.10;;;;;;5055285;28;20037;-75
2021/10/29 15:53:49;;;;;;;5.35;0.98;;;12.90;91.70;;;;;;5063544;28;20020;-74
2021/10/29 15:56:54;;;;;;;1.63;1.38;;;12.70;92.10;;;;;;5064565;28;20055;-75
2021/10/29 15:59:39;;;;;;;0.60;0.60;;;12.60;92.50;;;;;;5056655;28;20107;-74
2021/10/29 16:18:39;;;;;;;1.55;1.23;;;11.80;94.80;;;;;;5058606;28;20051;-76
2021/10/29 16:21:04;;;;;;;0.82;0.82;;;11.70;94.90;;;;;;5053227;28;20033;-75
2021/10/29 16:23:30;;;;;;;1.00;0.93;;;11.60;95.00;;;;;;5061947;28;20434;-74
2021/10/29 16:26:03;;;;;;;3.38;2.05;;;11.50;95.30;;;;;;5057682;28;20132;-74
2021/10/29 16:28:32;;;;;;;1.33;1.20;;;11.50;95.60;;;;;;5056872;28;20047;-73
2021/10/29 16:30:58;;;;;;;1.50;1.40;;;11.40;95.80;;;;;;5059870;28;20043;-73
2021/10/29 16:33:26;;;;;;;0.77;0.77;;;11.40;95.80;;;;;;5062037;28;20039;-72
2021/10/29 16:35:52;;;;;;;4.15;2.05;;;11.30;95.90;;;;;;5054068;28;20127;-72
2021/10/29 16:38:18;;;;;;;2.53;1.58;;;11.20;96.30;;;;;;5061752;28;20051;-72
2021/10/29 16:40:43;;;;;;;1.50;1.38;;;11.20;96.60;;;;;;5059922;28;20643;-73
2021/10/29 16:43:09;;;;;;;1.10;1.10;;;11.10;96.80;;;;;;5063294;28;20111;-76
2021/10/29 16:45:47;;;;;;;1.35;0.82;;;11.10;96.70;;;;;;5049015;28;20495;-77
2021/10/29 16:48:14;;;;;;;1.58;1.02;;;11.00;97.00;;;;;;5057358;28;20559;-77
2021/10/29 16:50:41;;;;;;;2.65;1.50;;;10.90;97.40;;;;;;5063485;28;20052;-77
2021/10/29 16:53:07;;;;;;;2.65;1.75;;;10.80;97.50;;;;;;5053036;28;20025;-76
2021/10/29 16:55:33;;;;;;;3.67;2.35;;;10.80;97.60;;;;;;5063437;28;20538;-76
2021/10/29 16:57:58;;;;;;;3.55;2.60;;;10.80;97.70;;;;;;5064241;28;20143;-76
2021/10/29 17:00:24;;;;;;;2.83;2.63;;;10.80;97.70;;;;;;5061600;28;20028;-77
2021/10/29 17:02:49;;;;;;;1.42;0.77;;;10.70;98.00;;;;;;5062492;28;20016;-77
2021/10/29 17:05:15;;;;;;;0.57;0.57;;;10.70;98.10;;;;;;5062143;28;20052;-77
2021/10/29 17:07:41;;;;;;;1.65;1.23;;;10.60;98.20;;;;;;5065274;28;20078;-76
2021/10/29 17:10:08;;;;;;;4.03;2.38;;;10.60;98.60;;;;;;5062564;28;20021;-77
2021/10/29 17:12:36;;;;;;;3.53;2.13;;;10.50;98.60;;;;;;5060619;28;20017;-76
2021/10/29 17:15:03;;;;;;;2.05;1.77;;;10.50;98.80;;;;;;5060473;28;20567;-77
2021/10/29 17:17:28;;;;;;;1.80;1.67;;;10.40;98.80;;;;;;5057265;28;20055;-77
2021/10/29 17:19:54;;;;;;;2.45;2.22;;;10.30;99.00;;;;;;5061114;28;20052;-77
2021/10/29 17:22:19;;;;;;;4.93;2.00;;;10.30;99.00;;;;;;5063160;28;20027;-77
2021/10/29 17:24:45;;;;;;;3.42;1.65;;;10.30;99.20;;;;;;5062322;28;20033;-77